Terminal Aerodrome Forecast
Issued by NWS

Current Version | Previous Version | Graphics & Text | Print | Product List | Glossary On
Versions: 1 2 3 4 5 6 7 8 9 10 11 12 13 14 15 16 17 18
000
FTUS41 KPBZ 301045 AAA
TAFHLG
TAF AMD
KHLG 301045Z 3011/0106 29004KT P6SM BKN050
     FM302000 36005KT P6SM VCSH BKN035 OVC200
     FM302100 35006KT P6SM -SHRA OVC025
     FM010500 36006KT P6SM BKN025=

USA.gov is the U.S. government's official web portal to all federal, state and local government web resources and services.